sensor_id;sensor_type;location;lat;lon;timestamp;P1;durP1;ratioP1;P2;durP2;ratioP2
1344;SDS011;15375;48.540;9.268;2022-08-19T00:00:38;26.13;;;23.63;;
1344;SDS011;15375;48.540;9.268;2022-08-19T00:03:04;26.50;;;24.00;;
1344;SDS011;15375;48.540;9.268;2022-08-19T00:05:31;26.93;;;24.07;;
1344;SDS011;15375;48.540;9.268;2022-08-19T00:07:57;26.60;;;23.90;;
1344;SDS011;15375;48.540;9.268;2022-08-19T00:10:22;24.80;;;22.40;;
1344;SDS011;15375;48.540;9.268;2022-08-19T00:12:49;19.87;;;17.93;;
1344;SDS011;15375;48.540;9.268;2022-08-19T00:15:16;25.40;;;22.80;;
1344;SDS011;15375;48.540;9.268;2022-08-19T00:17:43;24.90;;;19.67;;
1344;SDS011;15375;48.540;9.268;2022-08-19T00:20:10;24.20;;;21.80;;
1344;SDS011;15375;48.540;9.268;2022-08-19T00:22:38;24.80;;;22.30;;
1344;SDS011;15375;48.540;9.268;2022-08-19T00:25:06;18.87;;;17.07;;
1344;SDS011;15375;48.540;9.268;2022-08-19T00:27:32;23.17;;;20.83;;
1344;SDS011;15375;48.540;9.268;2022-08-19T00:29:58;23.23;;;20.93;;
1344;SDS011;15375;48.540;9.268;2022-08-19T00:32:24;27.23;;;24.53;;
1344;SDS011;15375;48.540;9.268;2022-08-19T00:34:50;23.90;;;20.70;;
1344;SDS011;15375;48.540;9.268;2022-08-19T00:37:17;21.50;;;19.33;;
1344;SDS011;15375;48.540;9.268;2022-08-19T00:39:43;23.90;;;21.07;;
1344;SDS011;15375;48.540;9.268;2022-08-19T00:42:08;25.20;;;22.70;;
1344;SDS011;15375;48.540;9.268;2022-08-19T00:44:34;28.13;;;25.40;;
1344;SDS011;15375;48.540;9.268;2022-08-19T00:47:00;28.50;;;25.50;;
1344;SDS011;15375;48.540;9.268;2022-08-19T00:49:34;26.33;;;23.63;;
1344;SDS011;15375;48.540;9.268;2022-08-19T00:54:32;26.30;;;23.30;;
1344;SDS011;15375;48.540;9.268;2022-08-19T00:56:58;23.37;;;21.03;;
1344;SDS011;15375;48.540;9.268;2022-08-19T00:59:26;28.67;;;23.70;;
1344;SDS011;15375;48.540;9.268;2022-08-19T01:01:53;23.00;;;20.50;;
1344;SDS011;15375;48.540;9.268;2022-08-19T01:04:19;26.27;;;23.53;;
1344;SDS011;15375;48.540;9.268;2022-08-19T01:06:45;20.10;;;18.13;;
1344;SDS011;15375;48.540;9.268;2022-08-19T01:09:10;24.70;;;22.13;;
1344;SDS011;15375;48.540;9.268;2022-08-19T01:11:36;26.13;;;23.57;;
1344;SDS011;15375;48.540;9.268;2022-08-19T01:14:05;22.63;;;20.37;;
1344;SDS011;15375;48.540;9.268;2022-08-19T01:16:32;24.17;;;21.67;;
1344;SDS011;15375;48.540;9.268;2022-08-19T01:19:12;24.60;;;22.00;;
1344;SDS011;15375;48.540;9.268;2022-08-19T01:21:49;19.67;;;17.77;;
1344;SDS011;15375;48.540;9.268;2022-08-19T01:24:20;25.67;;;22.07;;
1344;SDS011;15375;48.540;9.268;2022-08-19T01:26:45;28.33;;;25.47;;
1344;SDS011;15375;48.540;9.268;2022-08-19T01:29:12;24.83;;;22.20;;
1344;SDS011;15375;48.540;9.268;2022-08-19T01:31:38;27.90;;;25.03;;
1344;SDS011;15375;48.540;9.268;2022-08-19T01:34:04;27.97;;;25.10;;
1344;SDS011;15375;48.540;9.268;2022-08-19T01:36:36;25.90;;;23.50;;
1344;SDS011;15375;48.540;9.268;2022-08-19T01:39:07;26.00;;;23.30;;
1344;SDS011;15375;48.540;9.268;2022-08-19T01:41:36;25.87;;;23.13;;
1344;SDS011;15375;48.540;9.268;2022-08-19T01:44:02;23.00;;;20.67;;
1344;SDS011;15375;48.540;9.268;2022-08-19T01:46:29;21.67;;;19.47;;
1344;SDS011;15375;48.540;9.268;2022-08-19T01:48:55;21.53;;;19.23;;
1344;SDS011;15375;48.540;9.268;2022-08-19T01:51:21;23.00;;;20.77;;
1344;SDS011;15375;48.540;9.268;2022-08-19T01:53:47;25.27;;;22.67;;
1344;SDS011;15375;48.540;9.268;2022-08-19T01:56:14;25.00;;;22.40;;
1344;SDS011;15375;48.540;9.268;2022-08-19T01:58:41;26.43;;;23.73;;
1344;SDS011;15375;48.540;9.268;2022-08-19T02:01:13;23.90;;;21.60;;
1344;SDS011;15375;48.540;9.268;2022-08-19T02:03:41;25.83;;;23.13;;
1344;SDS011;15375;48.540;9.268;2022-08-19T02:06:07;18.27;;;16.60;;
1344;SDS011;15375;48.540;9.268;2022-08-19T02:08:33;22.80;;;20.37;;
1344;SDS011;15375;48.540;9.268;2022-08-19T02:11:01;24.23;;;22.03;;
1344;SDS011;15375;48.540;9.268;2022-08-19T02:13:27;23.00;;;20.73;;
1344;SDS011;15375;48.540;9.268;2022-08-19T02:15:53;24.77;;;22.27;;
1344;SDS011;15375;48.540;9.268;2022-08-19T02:18:18;26.70;;;23.97;;
1344;SDS011;15375;48.540;9.268;2022-08-19T02:20:44;32.40;;;24.13;;
1344;SDS011;15375;48.540;9.268;2022-08-19T02:23:11;27.07;;;24.20;;
1344;SDS011;15375;48.540;9.268;2022-08-19T02:25:37;27.33;;;24.47;;
1344;SDS011;15375;48.540;9.268;2022-08-19T02:28:04;23.43;;;21.03;;
1344;SDS011;15375;48.540;9.268;2022-08-19T02:30:30;25.37;;;22.90;;
1344;SDS011;15375;48.540;9.268;2022-08-19T02:32:55;25.63;;;22.33;;
1344;SDS011;15375;48.540;9.268;2022-08-19T02:35:21;26.57;;;23.87;;
1344;SDS011;15375;48.540;9.268;2022-08-19T02:37:47;21.57;;;19.47;;
1344;SDS011;15375;48.540;9.268;2022-08-19T02:40:31;26.73;;;23.93;;
1344;SDS011;15375;48.540;9.268;2022-08-19T02:42:59;24.57;;;21.93;;
1344;SDS011;15375;48.540;9.268;2022-08-19T02:45:25;23.83;;;21.33;;
1344;SDS011;15375;48.540;9.268;2022-08-19T02:47:51;26.33;;;23.27;;
1344;SDS011;15375;48.540;9.268;2022-08-19T02:50:16;19.23;;;17.27;;
1344;SDS011;15375;48.540;9.268;2022-08-19T02:52:42;23.17;;;20.70;;
1344;SDS011;15375;48.540;9.268;2022-08-19T02:55:08;24.43;;;21.80;;
1344;SDS011;15375;48.540;9.268;2022-08-19T02:57:33;27.00;;;24.10;;
1344;SDS011;15375;48.540;9.268;2022-08-19T02:59:59;24.33;;;21.00;;
1344;SDS011;15375;48.540;9.268;2022-08-19T03:02:25;25.60;;;22.80;;
1344;SDS011;15375;48.540;9.268;2022-08-19T03:04:50;24.87;;;22.23;;
1344;SDS011;15375;48.540;9.268;2022-08-19T03:07:16;21.50;;;19.20;;
1344;SDS011;15375;48.540;9.268;2022-08-19T03:09:43;27.07;;;24.23;;
1344;SDS011;15375;48.540;9.268;2022-08-19T03:12:09;23.23;;;20.83;;
1344;SDS011;15375;48.540;9.268;2022-08-19T03:14:35;27.47;;;23.00;;
1344;SDS011;15375;48.540;9.268;2022-08-19T03:17:02;20.80;;;17.33;;
1344;SDS011;15375;48.540;9.268;2022-08-19T03:19:29;30.07;;;24.10;;
1344;SDS011;15375;48.540;9.268;2022-08-19T03:21:56;24.30;;;21.30;;
1344;SDS011;15375;48.540;9.268;2022-08-19T03:24:22;25.10;;;22.40;;
1344;SDS011;15375;48.540;9.268;2022-08-19T03:26:50;25.97;;;23.20;;
1344;SDS011;15375;48.540;9.268;2022-08-19T03:29:17;26.10;;;23.50;;
1344;SDS011;15375;48.540;9.268;2022-08-19T03:31:44;17.60;;;15.87;;
1344;SDS011;15375;48.540;9.268;2022-08-19T03:34:11;20.13;;;18.13;;
1344;SDS011;15375;48.540;9.268;2022-08-19T03:36:37;23.00;;;20.60;;
1344;SDS011;15375;48.540;9.268;2022-08-19T03:39:04;19.40;;;17.33;;
1344;SDS011;15375;48.540;9.268;2022-08-19T03:41:31;29.00;;;22.67;;
1344;SDS011;15375;48.540;9.268;2022-08-19T03:43:58;24.47;;;21.60;;
1344;SDS011;15375;48.540;9.268;2022-08-19T03:46:28;24.40;;;21.70;;
1344;SDS011;15375;48.540;9.268;2022-08-19T03:48:56;22.03;;;19.77;;
1344;SDS011;15375;48.540;9.268;2022-08-19T03:51:28;18.17;;;16.47;;
1344;SDS011;15375;48.540;9.268;2022-08-19T03:53:56;22.03;;;19.30;;
1344;SDS011;15375;48.540;9.268;2022-08-19T03:56:23;23.70;;;21.20;;
1344;SDS011;15375;48.540;9.268;2022-08-19T03:58:50;25.37;;;21.27;;
1344;SDS011;15375;48.540;9.268;2022-08-19T04:01:18;25.93;;;20.73;;
1344;SDS011;15375;48.540;9.268;2022-08-19T04:03:47;24.43;;;21.20;;
1344;SDS011;15375;48.540;9.268;2022-08-19T04:08:41;24.00;;;21.37;;
1344;SDS011;15375;48.540;9.268;2022-08-19T04:11:18;26.37;;;19.50;;
1344;SDS011;15375;48.540;9.268;2022-08-19T04:13:46;17.77;;;16.00;;
1344;SDS011;15375;48.540;9.268;2022-08-19T04:16:12;24.60;;;20.83;;
1344;SDS011;15375;48.540;9.268;2022-08-19T04:18:38;24.80;;;22.13;;
1344;SDS011;15375;48.540;9.268;2022-08-19T04:21:05;23.73;;;19.93;;
1344;SDS011;15375;48.540;9.268;2022-08-19T04:23:32;22.63;;;20.20;;
1344;SDS011;15375;48.540;9.268;2022-08-19T04:25:59;25.53;;;22.30;;
1344;SDS011;15375;48.540;9.268;2022-08-19T04:28:24;26.37;;;23.57;;
1344;SDS011;15375;48.540;9.268;2022-08-19T04:30:51;24.07;;;21.50;;
1344;SDS011;15375;48.540;9.268;2022-08-19T04:33:19;26.50;;;23.80;;
1344;SDS011;15375;48.540;9.268;2022-08-19T04:35:47;24.50;;;21.60;;
1344;SDS011;15375;48.540;9.268;2022-08-19T04:38:17;29.43;;;24.47;;
1344;SDS011;15375;48.540;9.268;2022-08-19T04:40:46;26.20;;;23.47;;
1344;SDS011;15375;48.540;9.268;2022-08-19T04:43:31;27.47;;;24.50;;
1344;SDS011;15375;48.540;9.268;2022-08-19T04:45:57;26.87;;;23.37;;
1344;SDS011;15375;48.540;9.268;2022-08-19T04:48:24;25.03;;;21.63;;
1344;SDS011;15375;48.540;9.268;2022-08-19T04:50:56;23.70;;;21.20;;
1344;SDS011;15375;48.540;9.268;2022-08-19T04:53:28;27.20;;;23.43;;
1344;SDS011;15375;48.540;9.268;2022-08-19T04:55:56;29.57;;;24.80;;
1344;SDS011;15375;48.540;9.268;2022-08-19T04:58:24;25.67;;;22.97;;
1344;SDS011;15375;48.540;9.268;2022-08-19T05:00:51;28.33;;;21.63;;
1344;SDS011;15375;48.540;9.268;2022-08-19T05:03:17;26.37;;;23.63;;
1344;SDS011;15375;48.540;9.268;2022-08-19T05:05:43;26.73;;;21.93;;
1344;SDS011;15375;48.540;9.268;2022-08-19T05:08:14;29.70;;;25.67;;
1344;SDS011;15375;48.540;9.268;2022-08-19T05:10:46;26.00;;;23.10;;
1344;SDS011;15375;48.540;9.268;2022-08-19T05:13:13;31.40;;;23.60;;
1344;SDS011;15375;48.540;9.268;2022-08-19T05:15:41;29.27;;;24.07;;
1344;SDS011;15375;48.540;9.268;2022-08-19T05:18:06;32.13;;;23.70;;
1344;SDS011;15375;48.540;9.268;2022-08-19T05:20:50;35.97;;;26.43;;
1344;SDS011;15375;48.540;9.268;2022-08-19T05:23:34;27.53;;;22.70;;
1344;SDS011;15375;48.540;9.268;2022-08-19T05:26:00;26.57;;;22.83;;
1344;SDS011;15375;48.540;9.268;2022-08-19T05:28:25;23.17;;;20.23;;
1344;SDS011;15375;48.540;9.268;2022-08-19T05:30:51;28.57;;;24.40;;
1344;SDS011;15375;48.540;9.268;2022-08-19T05:33:17;29.10;;;25.57;;
1344;SDS011;15375;48.540;9.268;2022-08-19T05:35:43;28.20;;;24.47;;
1344;SDS011;15375;48.540;9.268;2022-08-19T05:38:09;26.33;;;22.43;;
1344;SDS011;15375;48.540;9.268;2022-08-19T05:40:36;28.23;;;23.67;;
1344;SDS011;15375;48.540;9.268;2022-08-19T05:43:04;33.30;;;27.20;;
1344;SDS011;15375;48.540;9.268;2022-08-19T05:45:31;28.37;;;24.10;;
1344;SDS011;15375;48.540;9.268;2022-08-19T05:47:57;30.07;;;24.23;;
1344;SDS011;15375;48.540;9.268;2022-08-19T05:50:23;29.37;;;24.60;;
1344;SDS011;15375;48.540;9.268;2022-08-19T05:52:51;29.43;;;24.57;;
1344;SDS011;15375;48.540;9.268;2022-08-19T05:55:17;30.00;;;25.37;;
1344;SDS011;15375;48.540;9.268;2022-08-19T05:57:45;32.30;;;25.70;;
1344;SDS011;15375;48.540;9.268;2022-08-19T06:00:11;33.83;;;27.57;;
1344;SDS011;15375;48.540;9.268;2022-08-19T06:02:37;32.23;;;26.17;;
1344;SDS011;15375;48.540;9.268;2022-08-19T06:05:04;31.23;;;26.23;;
1344;SDS011;15375;48.540;9.268;2022-08-19T06:07:32;29.53;;;24.90;;
1344;SDS011;15375;48.540;9.268;2022-08-19T06:09:57;33.13;;;26.37;;
1344;SDS011;15375;48.540;9.268;2022-08-19T06:12:23;28.50;;;25.40;;
1344;SDS011;15375;48.540;9.268;2022-08-19T06:14:53;29.57;;;25.73;;
1344;SDS011;15375;48.540;9.268;2022-08-19T06:17:19;31.60;;;25.70;;
1344;SDS011;15375;48.540;9.268;2022-08-19T06:19:47;27.70;;;24.80;;
1344;SDS011;15375;48.540;9.268;2022-08-19T06:22:14;28.40;;;23.63;;
1344;SDS011;15375;48.540;9.268;2022-08-19T06:24:41;27.10;;;23.37;;
1344;SDS011;15375;48.540;9.268;2022-08-19T06:27:06;29.50;;;24.97;;
1344;SDS011;15375;48.540;9.268;2022-08-19T06:29:32;30.70;;;25.10;;
1344;SDS011;15375;48.540;9.268;2022-08-19T06:31:59;26.50;;;23.60;;
1344;SDS011;15375;48.540;9.268;2022-08-19T06:34:26;30.27;;;24.83;;
1344;SDS011;15375;48.540;9.268;2022-08-19T06:36:54;31.13;;;25.47;;
1344;SDS011;15375;48.540;9.268;2022-08-19T06:39:22;26.17;;;23.33;;
1344;SDS011;15375;48.540;9.268;2022-08-19T06:41:50;29.70;;;24.60;;
1344;SDS011;15375;48.540;9.268;2022-08-19T06:44:19;31.90;;;26.43;;
1344;SDS011;15375;48.540;9.268;2022-08-19T06:46:47;39.80;;;25.30;;
1344;SDS011;15375;48.540;9.268;2022-08-19T06:49:14;34.47;;;27.33;;
1344;SDS011;15375;48.540;9.268;2022-08-19T06:51:43;30.80;;;27.47;;
1344;SDS011;15375;48.540;9.268;2022-08-19T06:54:12;35.43;;;26.73;;
1344;SDS011;15375;48.540;9.268;2022-08-19T06:56:37;32.30;;;28.20;;
1344;SDS011;15375;48.540;9.268;2022-08-19T06:59:04;28.20;;;24.87;;
1344;SDS011;15375;48.540;9.268;2022-08-19T07:01:41;31.97;;;27.13;;
1344;SDS011;15375;48.540;9.268;2022-08-19T07:04:12;33.03;;;26.20;;
1344;SDS011;15375;48.540;9.268;2022-08-19T07:06:40;33.93;;;29.03;;
1344;SDS011;15375;48.540;9.268;2022-08-19T07:09:07;31.80;;;25.20;;
1344;SDS011;15375;48.540;9.268;2022-08-19T07:11:36;34.20;;;25.97;;
1344;SDS011;15375;48.540;9.268;2022-08-19T07:14:02;26.80;;;23.90;;
1344;SDS011;15375;48.540;9.268;2022-08-19T07:16:27;32.47;;;28.77;;
1344;SDS011;15375;48.540;9.268;2022-08-19T07:18:53;30.27;;;24.80;;
1344;SDS011;15375;48.540;9.268;2022-08-19T07:21:24;30.87;;;25.20;;
1344;SDS011;15375;48.540;9.268;2022-08-19T07:23:54;28.50;;;23.57;;
1344;SDS011;15375;48.540;9.268;2022-08-19T07:28:51;31.57;;;25.77;;
1344;SDS011;15375;48.540;9.268;2022-08-19T07:31:18;29.83;;;26.60;;
1344;SDS011;15375;48.540;9.268;2022-08-19T07:33:46;34.13;;;28.17;;
1344;SDS011;15375;48.540;9.268;2022-08-19T07:36:14;29.27;;;24.07;;
1344;SDS011;15375;48.540;9.268;2022-08-19T07:38:43;31.70;;;28.30;;
1344;SDS011;15375;48.540;9.268;2022-08-19T07:41:12;33.60;;;28.23;;
1344;SDS011;15375;48.540;9.268;2022-08-19T07:43:40;29.70;;;26.03;;
1344;SDS011;15375;48.540;9.268;2022-08-19T07:46:06;31.40;;;26.17;;
1344;SDS011;15375;48.540;9.268;2022-08-19T07:48:32;33.20;;;27.60;;
1344;SDS011;15375;48.540;9.268;2022-08-19T07:50:59;40.60;;;30.60;;
1344;SDS011;15375;48.540;9.268;2022-08-19T07:53:29;34.00;;;30.37;;
1344;SDS011;15375;48.540;9.268;2022-08-19T07:55:56;34.90;;;28.37;;
1344;SDS011;15375;48.540;9.268;2022-08-19T07:58:25;30.23;;;27.07;;
1344;SDS011;15375;48.540;9.268;2022-08-19T08:00:50;32.90;;;27.70;;
1344;SDS011;15375;48.540;9.268;2022-08-19T08:03:17;35.37;;;29.10;;
1344;SDS011;15375;48.540;9.268;2022-08-19T08:05:44;32.40;;;27.90;;
1344;SDS011;15375;48.540;9.268;2022-08-19T08:08:29;33.87;;;28.03;;
1344;SDS011;15375;48.540;9.268;2022-08-19T08:11:13;39.17;;;30.63;;
1344;SDS011;15375;48.540;9.268;2022-08-19T08:13:39;27.53;;;24.20;;
1344;SDS011;15375;48.540;9.268;2022-08-19T08:16:06;32.90;;;29.00;;
1344;SDS011;15375;48.540;9.268;2022-08-19T08:18:32;31.07;;;27.63;;
1344;SDS011;15375;48.540;9.268;2022-08-19T08:20:59;27.50;;;24.53;;
1344;SDS011;15375;48.540;9.268;2022-08-19T08:23:24;27.87;;;24.20;;
1344;SDS011;15375;48.540;9.268;2022-08-19T08:25:51;28.50;;;24.93;;
1344;SDS011;15375;48.540;9.268;2022-08-19T08:28:20;32.63;;;29.30;;
1344;SDS011;15375;48.540;9.268;2022-08-19T08:30:47;36.47;;;28.37;;
1344;SDS011;15375;48.540;9.268;2022-08-19T08:33:14;23.03;;;20.43;;
1344;SDS011;15375;48.540;9.268;2022-08-19T08:35:43;38.57;;;28.50;;
1344;SDS011;15375;48.540;9.268;2022-08-19T08:38:10;34.43;;;30.70;;
1344;SDS011;15375;48.540;9.268;2022-08-19T08:46:06;38.43;;;30.30;;
1344;SDS011;15375;48.540;9.268;2022-08-19T08:51:04;36.57;;;30.60;;
1344;SDS011;15375;48.540;9.268;2022-08-19T08:53:35;33.93;;;29.33;;
1344;SDS011;15375;48.540;9.268;2022-08-19T08:56:03;36.80;;;32.20;;
1344;SDS011;15375;48.540;9.268;2022-08-19T08:58:41;42.90;;;31.83;;
1344;SDS011;15375;48.540;9.268;2022-08-19T09:01:14;38.20;;;32.00;;
1344;SDS011;15375;48.540;9.268;2022-08-19T09:03:40;38.40;;;30.73;;
1344;SDS011;15375;48.540;9.268;2022-08-19T09:06:12;38.70;;;29.87;;
1344;SDS011;15375;48.540;9.268;2022-08-19T09:08:48;37.30;;;30.20;;
1344;SDS011;15375;48.540;9.268;2022-08-19T09:11:29;39.60;;;31.67;;
1344;SDS011;15375;48.540;9.268;2022-08-19T09:17:10;38.80;;;28.70;;
1344;SDS011;15375;48.540;9.268;2022-08-19T09:20:38;37.10;;;28.83;;
1344;SDS011;15375;48.540;9.268;2022-08-19T09:22:44;38.20;;;31.00;;
1344;SDS011;15375;48.540;9.268;2022-08-19T09:25:13;35.53;;;30.37;;
1344;SDS011;15375;48.540;9.268;2022-08-19T09:27:40;37.40;;;31.20;;
1344;SDS011;15375;48.540;9.268;2022-08-19T09:30:07;40.73;;;30.20;;
1344;SDS011;15375;48.540;9.268;2022-08-19T09:32:35;40.13;;;30.00;;
1344;SDS011;15375;48.540;9.268;2022-08-19T09:35:00;38.97;;;30.80;;
1344;SDS011;15375;48.540;9.268;2022-08-19T09:37:26;40.70;;;32.07;;
1344;SDS011;15375;48.540;9.268;2022-08-19T09:39:52;42.70;;;31.30;;
1344;SDS011;15375;48.540;9.268;2022-08-19T09:42:18;44.03;;;32.00;;
1344;SDS011;15375;48.540;9.268;2022-08-19T09:44:44;42.87;;;30.70;;
1344;SDS011;15375;48.540;9.268;2022-08-19T09:47:10;36.10;;;31.20;;
1344;SDS011;15375;48.540;9.268;2022-08-19T09:49:36;38.00;;;32.57;;
1344;SDS011;15375;48.540;9.268;2022-08-19T09:52:04;46.50;;;33.00;;
1344;SDS011;15375;48.540;9.268;2022-08-19T09:54:31;39.97;;;31.80;;
1344;SDS011;15375;48.540;9.268;2022-08-19T09:56:57;38.63;;;31.53;;
1344;SDS011;15375;48.540;9.268;2022-08-19T09:59:25;40.97;;;32.97;;
1344;SDS011;15375;48.540;9.268;2022-08-19T10:01:51;44.40;;;32.90;;
1344;SDS011;15375;48.540;9.268;2022-08-19T10:04:17;40.53;;;32.33;;
1344;SDS011;15375;48.540;9.268;2022-08-19T10:06:42;40.60;;;32.70;;
1344;SDS011;15375;48.540;9.268;2022-08-19T10:09:09;37.67;;;31.20;;
1344;SDS011;15375;48.540;9.268;2022-08-19T10:11:36;43.13;;;30.70;;
1344;SDS011;15375;48.540;9.268;2022-08-19T10:14:04;36.80;;;29.63;;
1344;SDS011;15375;48.540;9.268;2022-08-19T10:16:33;39.07;;;31.20;;
1344;SDS011;15375;48.540;9.268;2022-08-19T10:19:00;37.73;;;29.77;;
1344;SDS011;15375;48.540;9.268;2022-08-19T10:21:28;41.07;;;32.60;;
1344;SDS011;15375;48.540;9.268;2022-08-19T10:23:57;35.17;;;29.87;;
1344;SDS011;15375;48.540;9.268;2022-08-19T10:26:25;35.30;;;30.60;;
1344;SDS011;15375;48.540;9.268;2022-08-19T10:28:55;41.87;;;32.47;;
1344;SDS011;15375;48.540;9.268;2022-08-19T10:31:27;36.47;;;31.70;;
1344;SDS011;15375;48.540;9.268;2022-08-19T10:33:55;43.93;;;32.53;;
1344;SDS011;15375;48.540;9.268;2022-08-19T10:36:24;30.53;;;27.10;;
1344;SDS011;15375;48.540;9.268;2022-08-19T10:38:56;23.87;;;20.60;;
1344;SDS011;15375;48.540;9.268;2022-08-19T10:41:32;37.70;;;31.03;;
1344;SDS011;15375;48.540;9.268;2022-08-19T10:44:01;42.50;;;33.13;;
1344;SDS011;15375;48.540;9.268;2022-08-19T10:46:36;39.40;;;32.30;;
1344;SDS011;15375;48.540;9.268;2022-08-19T10:49:03;36.53;;;30.90;;
1344;SDS011;15375;48.540;9.268;2022-08-19T10:51:30;37.50;;;31.13;;
1344;SDS011;15375;48.540;9.268;2022-08-19T10:54:15;40.60;;;32.50;;
1344;SDS011;15375;48.540;9.268;2022-08-19T10:56:40;37.10;;;29.87;;
1344;SDS011;15375;48.540;9.268;2022-08-19T11:01:45;36.53;;;31.80;;
1344;SDS011;15375;48.540;9.268;2022-08-19T11:04:10;40.20;;;30.43;;
1344;SDS011;15375;48.540;9.268;2022-08-19T11:06:39;37.60;;;30.40;;
1344;SDS011;15375;48.540;9.268;2022-08-19T11:09:06;40.43;;;32.90;;
1344;SDS011;15375;48.540;9.268;2022-08-19T11:11:32;37.40;;;30.77;;
1344;SDS011;15375;48.540;9.268;2022-08-19T11:13:57;40.23;;;32.30;;
1344;SDS011;15375;48.540;9.268;2022-08-19T11:16:24;42.53;;;32.93;;
1344;SDS011;15375;48.540;9.268;2022-08-19T11:18:52;37.83;;;28.77;;
1344;SDS011;15375;48.540;9.268;2022-08-19T11:21:30;39.93;;;32.80;;
1344;SDS011;15375;48.540;9.268;2022-08-19T11:23:58;35.60;;;30.77;;
1344;SDS011;15375;48.540;9.268;2022-08-19T11:26:25;39.60;;;31.97;;
1344;SDS011;15375;48.540;9.268;2022-08-19T11:28:53;40.30;;;31.03;;
1344;SDS011;15375;48.540;9.268;2022-08-19T11:31:24;34.23;;;28.07;;
1344;SDS011;15375;48.540;9.268;2022-08-19T11:33:51;34.37;;;27.50;;
1344;SDS011;15375;48.540;9.268;2022-08-19T11:36:19;36.97;;;31.30;;
1344;SDS011;15375;48.540;9.268;2022-08-19T11:38:46;30.43;;;27.17;;
1344;SDS011;15375;48.540;9.268;2022-08-19T11:41:13;32.73;;;28.47;;
1344;SDS011;15375;48.540;9.268;2022-08-19T11:43:40;32.10;;;27.87;;
1344;SDS011;15375;48.540;9.268;2022-08-19T11:46:09;31.60;;;26.60;;
1344;SDS011;15375;48.540;9.268;2022-08-19T11:48:38;28.37;;;25.27;;
1344;SDS011;15375;48.540;9.268;2022-08-19T11:51:05;31.77;;;26.80;;
1344;SDS011;15375;48.540;9.268;2022-08-19T11:53:34;31.10;;;27.40;;
1344;SDS011;15375;48.540;9.268;2022-08-19T11:56:01;31.03;;;27.40;;
1344;SDS011;15375;48.540;9.268;2022-08-19T11:58:28;27.93;;;24.87;;
1344;SDS011;15375;48.540;9.268;2022-08-19T12:00:54;29.40;;;26.30;;
1344;SDS011;15375;48.540;9.268;2022-08-19T12:03:19;33.60;;;26.63;;
1344;SDS011;15375;48.540;9.268;2022-08-19T12:05:45;32.43;;;27.97;;
1344;SDS011;15375;48.540;9.268;2022-08-19T12:08:11;28.83;;;25.77;;
1344;SDS011;15375;48.540;9.268;2022-08-19T12:10:40;31.13;;;27.87;;
1344;SDS011;15375;48.540;9.268;2022-08-19T12:13:07;28.67;;;25.50;;
1344;SDS011;15375;48.540;9.268;2022-08-19T12:15:36;28.47;;;25.40;;
1344;SDS011;15375;48.540;9.268;2022-08-19T12:18:05;29.47;;;26.30;;
1344;SDS011;15375;48.540;9.268;2022-08-19T12:20:32;30.00;;;26.80;;
1344;SDS011;15375;48.540;9.268;2022-08-19T12:23:00;26.63;;;23.83;;
1344;SDS011;15375;48.540;9.268;2022-08-19T12:25:25;28.63;;;25.10;;
1344;SDS011;15375;48.540;9.268;2022-08-19T12:27:50;28.27;;;25.33;;
1344;SDS011;15375;48.540;9.268;2022-08-19T12:30:16;28.50;;;25.23;;
1344;SDS011;15375;48.540;9.268;2022-08-19T12:32:42;29.53;;;25.63;;
1344;SDS011;15375;48.540;9.268;2022-08-19T12:35:07;26.87;;;24.17;;
1344;SDS011;15375;48.540;9.268;2022-08-19T12:37:36;28.23;;;25.27;;
1344;SDS011;15375;48.540;9.268;2022-08-19T12:40:02;27.00;;;22.80;;
1344;SDS011;15375;48.540;9.268;2022-08-19T12:42:28;26.23;;;23.57;;
1344;SDS011;15375;48.540;9.268;2022-08-19T12:44:55;26.63;;;23.83;;
1344;SDS011;15375;48.540;9.268;2022-08-19T12:47:20;28.53;;;25.63;;
1344;SDS011;15375;48.540;9.268;2022-08-19T12:49:46;29.03;;;25.87;;
1344;SDS011;15375;48.540;9.268;2022-08-19T12:52:12;34.03;;;29.90;;
1344;SDS011;15375;48.540;9.268;2022-08-19T12:54:40;23.03;;;20.80;;
1344;SDS011;15375;48.540;9.268;2022-08-19T12:57:07;27.53;;;24.63;;
1344;SDS011;15375;48.540;9.268;2022-08-19T12:59:36;34.33;;;27.87;;
1344;SDS011;15375;48.540;9.268;2022-08-19T13:02:03;28.60;;;25.50;;
1344;SDS011;15375;48.540;9.268;2022-08-19T13:04:32;29.23;;;25.23;;
1344;SDS011;15375;48.540;9.268;2022-08-19T13:07:01;30.83;;;27.53;;
1344;SDS011;15375;48.540;9.268;2022-08-19T13:09:27;31.07;;;27.77;;
1344;SDS011;15375;48.540;9.268;2022-08-19T13:11:52;32.33;;;27.67;;
1344;SDS011;15375;48.540;9.268;2022-08-19T13:14:18;30.90;;;27.60;;
1344;SDS011;15375;48.540;9.268;2022-08-19T13:16:43;32.87;;;29.23;;
1344;SDS011;15375;48.540;9.268;2022-08-19T13:19:09;30.27;;;27.00;;
1344;SDS011;15375;48.540;9.268;2022-08-19T13:21:35;36.53;;;31.10;;
1344;SDS011;15375;48.540;9.268;2022-08-19T13:24:01;33.30;;;29.40;;
1344;SDS011;15375;48.540;9.268;2022-08-19T13:26:27;39.33;;;29.37;;
1344;SDS011;15375;48.540;9.268;2022-08-19T13:28:52;34.83;;;31.13;;
1344;SDS011;15375;48.540;9.268;2022-08-19T13:31:38;33.90;;;30.30;;
1344;SDS011;15375;48.540;9.268;2022-08-19T13:34:31;34.90;;;28.27;;
1344;SDS011;15375;48.540;9.268;2022-08-19T13:36:59;32.90;;;28.10;;
1344;SDS011;15375;48.540;9.268;2022-08-19T13:39:25;31.87;;;27.13;;
1344;SDS011;15375;48.540;9.268;2022-08-19T13:41:50;34.10;;;29.47;;
1344;SDS011;15375;48.540;9.268;2022-08-19T13:44:16;35.17;;;28.53;;
1344;SDS011;15375;48.540;9.268;2022-08-19T13:46:48;33.30;;;29.80;;
1344;SDS011;15375;48.540;9.268;2022-08-19T13:49:15;37.00;;;29.60;;
1344;SDS011;15375;48.540;9.268;2022-08-19T13:51:41;30.37;;;26.80;;
1344;SDS011;15375;48.540;9.268;2022-08-19T13:54:08;32.10;;;27.70;;
1344;SDS011;15375;48.540;9.268;2022-08-19T13:56:35;32.33;;;28.50;;
1344;SDS011;15375;48.540;9.268;2022-08-19T13:59:04;37.80;;;30.23;;
1344;SDS011;15375;48.540;9.268;2022-08-19T14:01:30;33.03;;;28.27;;
1344;SDS011;15375;48.540;9.268;2022-08-19T14:03:55;35.53;;;30.33;;
1344;SDS011;15375;48.540;9.268;2022-08-19T14:06:20;38.87;;;32.47;;
1344;SDS011;15375;48.540;9.268;2022-08-19T14:08:47;35.20;;;31.07;;
1344;SDS011;15375;48.540;9.268;2022-08-19T14:11:12;79.73;;;36.73;;
1344;SDS011;15375;48.540;9.268;2022-08-19T14:13:38;34.53;;;30.43;;
1344;SDS011;15375;48.540;9.268;2022-08-19T14:16:08;33.47;;;29.87;;
1344;SDS011;15375;48.540;9.268;2022-08-19T14:18:35;42.07;;;31.40;;
1344;SDS011;15375;48.540;9.268;2022-08-19T14:21:00;54.07;;;32.50;;
1344;SDS011;15375;48.540;9.268;2022-08-19T14:23:27;68.67;;;31.83;;
1344;SDS011;15375;48.540;9.268;2022-08-19T14:26:02;44.00;;;28.80;;
1344;SDS011;15375;48.540;9.268;2022-08-19T14:28:32;73.30;;;37.83;;
1344;SDS011;15375;48.540;9.268;2022-08-19T14:30:58;34.87;;;29.73;;
1344;SDS011;15375;48.540;9.268;2022-08-19T14:33:23;63.53;;;33.80;;
1344;SDS011;15375;48.540;9.268;2022-08-19T14:35:48;40.27;;;31.30;;
1344;SDS011;15375;48.540;9.268;2022-08-19T14:38:14;37.10;;;31.37;;
1344;SDS011;15375;48.540;9.268;2022-08-19T14:40:42;38.47;;;32.70;;
1344;SDS011;15375;48.540;9.268;2022-08-19T14:43:07;46.83;;;31.43;;
1344;SDS011;15375;48.540;9.268;2022-08-19T14:45:34;38.17;;;28.93;;
1344;SDS011;15375;48.540;9.268;2022-08-19T14:48:02;51.03;;;33.27;;
1344;SDS011;15375;48.540;9.268;2022-08-19T14:50:29;43.10;;;30.73;;
1344;SDS011;15375;48.540;9.268;2022-08-19T14:53:02;87.13;;;36.27;;
1344;SDS011;15375;48.540;9.268;2022-08-19T14:55:29;46.50;;;31.97;;
1344;SDS011;15375;48.540;9.268;2022-08-19T14:57:56;32.73;;;29.37;;